sensor_id;sensor_type;location;lat;lon;timestamp;P1;durP1;ratioP1;P2;durP2;ratioP2
60344;SDS011;46188;52.324;8.032;2023-05-10T00:01:15;12.40;;;9.65;;
60344;SDS011;46188;52.324;8.032;2023-05-10T00:03:41;12.60;;;9.48;;
60344;SDS011;46188;52.324;8.032;2023-05-10T00:06:06;14.07;;;9.38;;
60344;SDS011;46188;52.324;8.032;2023-05-10T00:08:31;13.98;;;9.43;;
60344;SDS011;46188;52.324;8.032;2023-05-10T00:10:56;12.30;;;9.25;;
60344;SDS011;46188;52.324;8.032;2023-05-10T00:13:22;13.15;;;9.55;;
60344;SDS011;46188;52.324;8.032;2023-05-10T00:15:47;11.52;;;9.75;;
60344;SDS011;46188;52.324;8.032;2023-05-10T00:18:12;14.23;;;9.32;;
60344;SDS011;46188;52.324;8.032;2023-05-10T00:20:37;11.68;;;8.18;;
60344;SDS011;46188;52.324;8.032;2023-05-10T00:23:03;11.15;;;8.02;;
60344;SDS011;46188;52.324;8.032;2023-05-10T00:25:28;13.00;;;8.32;;
60344;SDS011;46188;52.324;8.032;2023-05-10T00:27:53;9.85;;;8.02;;
60344;SDS011;46188;52.324;8.032;2023-05-10T00:30:20;13.02;;;8.30;;
60344;SDS011;46188;52.324;8.032;2023-05-10T00:32:45;12.63;;;9.18;;
60344;SDS011;46188;52.324;8.032;2023-05-10T00:35:12;12.23;;;9.02;;
60344;SDS011;46188;52.324;8.032;2023-05-10T00:37:38;11.15;;;8.43;;
60344;SDS011;46188;52.324;8.032;2023-05-10T00:40:03;11.00;;;8.35;;
60344;SDS011;46188;52.324;8.032;2023-05-10T00:42:29;14.05;;;8.80;;
60344;SDS011;46188;52.324;8.032;2023-05-10T00:44:55;12.93;;;8.85;;
60344;SDS011;46188;52.324;8.032;2023-05-10T00:47:20;13.15;;;9.23;;
60344;SDS011;46188;52.324;8.032;2023-05-10T00:49:45;11.18;;;8.23;;
60344;SDS011;46188;52.324;8.032;2023-05-10T00:52:11;14.18;;;8.93;;
60344;SDS011;46188;52.324;8.032;2023-05-10T00:54:36;10.63;;;7.75;;
60344;SDS011;46188;52.324;8.032;2023-05-10T00:57:02;9.70;;;7.85;;
60344;SDS011;46188;52.324;8.032;2023-05-10T00:59:28;11.18;;;8.07;;
60344;SDS011;46188;52.324;8.032;2023-05-10T01:01:53;9.75;;;7.47;;
60344;SDS011;46188;52.324;8.032;2023-05-10T01:04:19;12.60;;;7.75;;
60344;SDS011;46188;52.324;8.032;2023-05-10T01:06:50;12.18;;;8.15;;
60344;SDS011;46188;52.324;8.032;2023-05-10T01:09:15;10.18;;;8.18;;
60344;SDS011;46188;52.324;8.032;2023-05-10T01:11:41;10.32;;;8.45;;
60344;SDS011;46188;52.324;8.032;2023-05-10T01:14:06;11.35;;;7.82;;
60344;SDS011;46188;52.324;8.032;2023-05-10T01:16:33;10.95;;;8.27;;
60344;SDS011;46188;52.324;8.032;2023-05-10T01:19:02;10.63;;;8.13;;
60344;SDS011;46188;52.324;8.032;2023-05-10T01:21:48;10.73;;;8.25;;
60344;SDS011;46188;52.324;8.032;2023-05-10T01:24:32;9.88;;;8.00;;
60344;SDS011;46188;52.324;8.032;2023-05-10T01:35:22;10.05;;;7.50;;
60344;SDS011;46188;52.324;8.032;2023-05-10T01:38:07;9.65;;;7.72;;
60344;SDS011;46188;52.324;8.032;2023-05-10T01:43:44;10.25;;;7.47;;
60344;SDS011;46188;52.324;8.032;2023-05-10T01:46:20;11.13;;;8.25;;
60344;SDS011;46188;52.324;8.032;2023-05-10T01:48:55;11.23;;;8.18;;
60344;SDS011;46188;52.324;8.032;2023-05-10T01:51:25;11.50;;;8.20;;
60344;SDS011;46188;52.324;8.032;2023-05-10T01:53:54;10.73;;;8.57;;
60344;SDS011;46188;52.324;8.032;2023-05-10T01:56:25;6.95;;;5.55;;
60344;SDS011;46188;52.324;8.032;2023-05-10T01:58:52;5.80;;;4.40;;
60344;SDS011;46188;52.324;8.032;2023-05-10T02:01:20;5.20;;;4.35;;
60344;SDS011;46188;52.324;8.032;2023-05-10T02:03:46;6.85;;;4.63;;
60344;SDS011;46188;52.324;8.032;2023-05-10T02:06:13;4.85;;;3.83;;
60344;SDS011;46188;52.324;8.032;2023-05-10T02:08:41;4.55;;;3.53;;
60344;SDS011;46188;52.324;8.032;2023-05-10T02:11:07;5.57;;;3.75;;
60344;SDS011;46188;52.324;8.032;2023-05-10T02:13:37;4.05;;;2.92;;
60344;SDS011;46188;52.324;8.032;2023-05-10T02:16:04;6.15;;;3.03;;
60344;SDS011;46188;52.324;8.032;2023-05-10T02:18:30;5.05;;;2.90;;
60344;SDS011;46188;52.324;8.032;2023-05-10T02:20:57;4.07;;;3.05;;
60344;SDS011;46188;52.324;8.032;2023-05-10T02:23:23;5.78;;;2.63;;
60344;SDS011;46188;52.324;8.032;2023-05-10T02:25:51;3.63;;;2.97;;
60344;SDS011;46188;52.324;8.032;2023-05-10T02:28:18;3.92;;;2.90;;
60344;SDS011;46188;52.324;8.032;2023-05-10T02:30:46;3.58;;;2.60;;
60344;SDS011;46188;52.324;8.032;2023-05-10T02:33:12;4.82;;;3.17;;
60344;SDS011;46188;52.324;8.032;2023-05-10T02:35:39;4.57;;;3.30;;
60344;SDS011;46188;52.324;8.032;2023-05-10T02:38:05;6.32;;;3.25;;
60344;SDS011;46188;52.324;8.032;2023-05-10T02:40:32;4.32;;;3.33;;
60344;SDS011;46188;52.324;8.032;2023-05-10T02:42:58;4.57;;;3.40;;
60344;SDS011;46188;52.324;8.032;2023-05-10T02:45:24;3.80;;;3.38;;
60344;SDS011;46188;52.324;8.032;2023-05-10T02:47:53;6.13;;;3.88;;
60344;SDS011;46188;52.324;8.032;2023-05-10T02:50:18;4.88;;;3.90;;
60344;SDS011;46188;52.324;8.032;2023-05-10T02:52:49;4.93;;;3.88;;
60344;SDS011;46188;52.324;8.032;2023-05-10T02:57:48;4.45;;;3.03;;
60344;SDS011;46188;52.324;8.032;2023-05-10T03:00:17;3.72;;;2.50;;
60344;SDS011;46188;52.324;8.032;2023-05-10T03:02:42;3.47;;;1.92;;
60344;SDS011;46188;52.324;8.032;2023-05-10T03:05:07;2.03;;;1.63;;
60344;SDS011;46188;52.324;8.032;2023-05-10T03:07:33;2.83;;;1.63;;
60344;SDS011;46188;52.324;8.032;2023-05-10T03:09:58;9.38;;;2.22;;
60344;SDS011;46188;52.324;8.032;2023-05-10T03:20:22;3.00;;;2.30;;
60344;SDS011;46188;52.324;8.032;2023-05-10T03:22:53;3.50;;;2.70;;
60344;SDS011;46188;52.324;8.032;2023-05-10T03:25:22;3.80;;;2.80;;
60344;SDS011;46188;52.324;8.032;2023-05-10T03:27:48;5.78;;;3.03;;
60344;SDS011;46188;52.324;8.032;2023-05-10T03:30:15;3.67;;;3.13;;
60344;SDS011;46188;52.324;8.032;2023-05-10T03:32:41;3.53;;;2.72;;
60344;SDS011;46188;52.324;8.032;2023-05-10T03:35:10;4.82;;;3.00;;
60344;SDS011;46188;52.324;8.032;2023-05-10T03:37:36;5.70;;;3.03;;
60344;SDS011;46188;52.324;8.032;2023-05-10T03:40:02;6.00;;;3.40;;
60344;SDS011;46188;52.324;8.032;2023-05-10T03:42:28;4.18;;;3.10;;
60344;SDS011;46188;52.324;8.032;2023-05-10T03:44:53;4.70;;;3.65;;
60344;SDS011;46188;52.324;8.032;2023-05-10T03:47:18;4.43;;;3.50;;
60344;SDS011;46188;52.324;8.032;2023-05-10T03:49:44;5.80;;;3.88;;
60344;SDS011;46188;52.324;8.032;2023-05-10T03:52:10;4.75;;;4.00;;
60344;SDS011;46188;52.324;8.032;2023-05-10T03:54:35;6.10;;;4.43;;
60344;SDS011;46188;52.324;8.032;2023-05-10T03:57:00;6.32;;;5.07;;
60344;SDS011;46188;52.324;8.032;2023-05-10T03:59:25;6.47;;;4.78;;
60344;SDS011;46188;52.324;8.032;2023-05-10T04:01:51;7.65;;;5.18;;
60344;SDS011;46188;52.324;8.032;2023-05-10T04:04:16;6.90;;;5.10;;
60344;SDS011;46188;52.324;8.032;2023-05-10T04:06:43;8.55;;;5.78;;
60344;SDS011;46188;52.324;8.032;2023-05-10T04:09:08;8.02;;;5.68;;
60344;SDS011;46188;52.324;8.032;2023-05-10T04:11:34;10.18;;;5.63;;
60344;SDS011;46188;52.324;8.032;2023-05-10T04:13:59;8.40;;;7.07;;
60344;SDS011;46188;52.324;8.032;2023-05-10T04:16:24;7.45;;;6.00;;
60344;SDS011;46188;52.324;8.032;2023-05-10T04:18:49;8.82;;;6.32;;
60344;SDS011;46188;52.324;8.032;2023-05-10T04:21:15;8.20;;;6.57;;
60344;SDS011;46188;52.324;8.032;2023-05-10T04:23:40;8.30;;;6.85;;
60344;SDS011;46188;52.324;8.032;2023-05-10T04:26:06;9.50;;;6.40;;
60344;SDS011;46188;52.324;8.032;2023-05-10T04:28:31;9.13;;;7.28;;
60344;SDS011;46188;52.324;8.032;2023-05-10T04:31:00;10.70;;;7.13;;
60344;SDS011;46188;52.324;8.032;2023-05-10T04:33:29;10.77;;;6.78;;
60344;SDS011;46188;52.324;8.032;2023-05-10T04:35:54;7.32;;;6.15;;
60344;SDS011;46188;52.324;8.032;2023-05-10T04:38:19;9.55;;;6.93;;
60344;SDS011;46188;52.324;8.032;2023-05-10T04:40:45;7.95;;;6.88;;
60344;SDS011;46188;52.324;8.032;2023-05-10T04:43:10;9.25;;;6.43;;
60344;SDS011;46188;52.324;8.032;2023-05-10T04:45:35;8.45;;;6.53;;
60344;SDS011;46188;52.324;8.032;2023-05-10T04:48:00;8.55;;;7.10;;
60344;SDS011;46188;52.324;8.032;2023-05-10T04:50:26;10.52;;;6.40;;
60344;SDS011;46188;52.324;8.032;2023-05-10T04:52:51;7.50;;;6.32;;
60344;SDS011;46188;52.324;8.032;2023-05-10T04:55:16;8.82;;;6.63;;
60344;SDS011;46188;52.324;8.032;2023-05-10T04:57:41;12.20;;;6.93;;
60344;SDS011;46188;52.324;8.032;2023-05-10T05:00:07;9.80;;;6.90;;
60344;SDS011;46188;52.324;8.032;2023-05-10T05:02:33;8.38;;;6.50;;
60344;SDS011;46188;52.324;8.032;2023-05-10T05:04:58;8.90;;;6.25;;
60344;SDS011;46188;52.324;8.032;2023-05-10T05:07:23;8.80;;;7.07;;
60344;SDS011;46188;52.324;8.032;2023-05-10T05:09:48;8.10;;;6.28;;
60344;SDS011;46188;52.324;8.032;2023-05-10T05:12:14;9.98;;;5.85;;
60344;SDS011;46188;52.324;8.032;2023-05-10T05:14:39;9.18;;;6.18;;
60344;SDS011;46188;52.324;8.032;2023-05-10T05:17:06;8.00;;;5.35;;
60344;SDS011;46188;52.324;8.032;2023-05-10T05:19:31;6.88;;;5.28;;
60344;SDS011;46188;52.324;8.032;2023-05-10T05:21:56;11.20;;;5.47;;
60344;SDS011;46188;52.324;8.032;2023-05-10T05:24:21;5.75;;;5.15;;
60344;SDS011;46188;52.324;8.032;2023-05-10T05:26:47;6.95;;;5.55;;
60344;SDS011;46188;52.324;8.032;2023-05-10T05:29:12;8.63;;;5.78;;
60344;SDS011;46188;52.324;8.032;2023-05-10T05:31:37;8.32;;;4.90;;
60344;SDS011;46188;52.324;8.032;2023-05-10T05:34:02;10.02;;;5.45;;
60344;SDS011;46188;52.324;8.032;2023-05-10T05:36:28;8.70;;;6.30;;
60344;SDS011;46188;52.324;8.032;2023-05-10T05:38:53;8.43;;;5.07;;
60344;SDS011;46188;52.324;8.032;2023-05-10T05:41:18;9.52;;;5.93;;
60344;SDS011;46188;52.324;8.032;2023-05-10T05:43:43;8.02;;;6.05;;
60344;SDS011;46188;52.324;8.032;2023-05-10T05:46:09;9.85;;;5.50;;
60344;SDS011;46188;52.324;8.032;2023-05-10T05:48:34;11.18;;;7.25;;
60344;SDS011;46188;52.324;8.032;2023-05-10T05:50:59;9.90;;;5.88;;
60344;SDS011;46188;52.324;8.032;2023-05-10T05:53:24;12.45;;;6.13;;
60344;SDS011;46188;52.324;8.032;2023-05-10T05:55:53;10.93;;;6.85;;
60344;SDS011;46188;52.324;8.032;2023-05-10T05:58:20;9.32;;;6.65;;
60344;SDS011;46188;52.324;8.032;2023-05-10T06:00:46;11.98;;;6.18;;
60344;SDS011;46188;52.324;8.032;2023-05-10T06:03:11;12.30;;;5.95;;
60344;SDS011;46188;52.324;8.032;2023-05-10T06:05:37;13.07;;;6.30;;
60344;SDS011;46188;52.324;8.032;2023-05-10T06:08:02;10.32;;;6.10;;
60344;SDS011;46188;52.324;8.032;2023-05-10T06:10:27;10.60;;;6.10;;
60344;SDS011;46188;52.324;8.032;2023-05-10T06:12:53;8.77;;;6.38;;
60344;SDS011;46188;52.324;8.032;2023-05-10T06:15:18;11.30;;;6.03;;
60344;SDS011;46188;52.324;8.032;2023-05-10T06:17:43;13.20;;;6.32;;
60344;SDS011;46188;52.324;8.032;2023-05-10T06:20:09;7.82;;;5.15;;
60344;SDS011;46188;52.324;8.032;2023-05-10T06:22:35;9.65;;;6.00;;
60344;SDS011;46188;52.324;8.032;2023-05-10T06:25:00;7.70;;;5.63;;
60344;SDS011;46188;52.324;8.032;2023-05-10T06:27:25;11.05;;;5.40;;
60344;SDS011;46188;52.324;8.032;2023-05-10T06:29:50;6.68;;;5.20;;
60344;SDS011;46188;52.324;8.032;2023-05-10T06:32:16;8.43;;;5.55;;
60344;SDS011;46188;52.324;8.032;2023-05-10T06:34:41;7.35;;;6.13;;
60344;SDS011;46188;52.324;8.032;2023-05-10T06:37:08;8.88;;;5.70;;
60344;SDS011;46188;52.324;8.032;2023-05-10T06:39:33;12.18;;;6.03;;
60344;SDS011;46188;52.324;8.032;2023-05-10T06:41:58;6.65;;;5.40;;
60344;SDS011;46188;52.324;8.032;2023-05-10T06:44:24;9.65;;;6.53;;
60344;SDS011;46188;52.324;8.032;2023-05-10T06:46:49;11.00;;;7.20;;
60344;SDS011;46188;52.324;8.032;2023-05-10T06:49:14;10.07;;;6.55;;
60344;SDS011;46188;52.324;8.032;2023-05-10T06:51:40;8.65;;;6.68;;
60344;SDS011;46188;52.324;8.032;2023-05-10T06:54:05;11.85;;;7.10;;
60344;SDS011;46188;52.324;8.032;2023-05-10T06:56:31;10.93;;;6.60;;
60344;SDS011;46188;52.324;8.032;2023-05-10T06:58:56;9.20;;;6.90;;
60344;SDS011;46188;52.324;8.032;2023-05-10T07:01:22;13.45;;;7.32;;
60344;SDS011;46188;52.324;8.032;2023-05-10T07:03:47;13.02;;;8.30;;
60344;SDS011;46188;52.324;8.032;2023-05-10T07:06:13;10.85;;;7.07;;
60344;SDS011;46188;52.324;8.032;2023-05-10T07:08:38;13.48;;;7.78;;
60344;SDS011;46188;52.324;8.032;2023-05-10T07:11:04;14.45;;;7.75;;
60344;SDS011;46188;52.324;8.032;2023-05-10T07:13:30;11.70;;;7.63;;
60344;SDS011;46188;52.324;8.032;2023-05-10T07:15:56;14.15;;;7.85;;
60344;SDS011;46188;52.324;8.032;2023-05-10T07:18:22;16.23;;;8.32;;
60344;SDS011;46188;52.324;8.032;2023-05-10T07:20:47;14.10;;;8.35;;
60344;SDS011;46188;52.324;8.032;2023-05-10T07:23:13;13.63;;;9.43;;
60344;SDS011;46188;52.324;8.032;2023-05-10T07:25:38;16.27;;;10.13;;
60344;SDS011;46188;52.324;8.032;2023-05-10T07:28:03;14.60;;;9.30;;
60344;SDS011;46188;52.324;8.032;2023-05-10T07:30:29;18.67;;;10.00;;
60344;SDS011;46188;52.324;8.032;2023-05-10T07:32:54;18.35;;;10.90;;
60344;SDS011;46188;52.324;8.032;2023-05-10T07:35:19;20.00;;;10.60;;
60344;SDS011;46188;52.324;8.032;2023-05-10T07:37:45;20.90;;;10.23;;
60344;SDS011;46188;52.324;8.032;2023-05-10T07:40:10;20.27;;;11.18;;
60344;SDS011;46188;52.324;8.032;2023-05-10T07:42:35;19.48;;;11.65;;
60344;SDS011;46188;52.324;8.032;2023-05-10T07:45:01;19.33;;;11.13;;
60344;SDS011;46188;52.324;8.032;2023-05-10T07:47:26;18.95;;;11.05;;
60344;SDS011;46188;52.324;8.032;2023-05-10T07:49:51;19.50;;;10.10;;
60344;SDS011;46188;52.324;8.032;2023-05-10T07:52:17;19.23;;;10.95;;
60344;SDS011;46188;52.324;8.032;2023-05-10T07:54:42;19.75;;;11.35;;
60344;SDS011;46188;52.324;8.032;2023-05-10T07:57:07;19.02;;;11.50;;
60344;SDS011;46188;52.324;8.032;2023-05-10T07:59:32;21.20;;;10.93;;
60344;SDS011;46188;52.324;8.032;2023-05-10T08:01:58;25.95;;;11.63;;
60344;SDS011;46188;52.324;8.032;2023-05-10T08:04:23;21.50;;;12.05;;
60344;SDS011;46188;52.324;8.032;2023-05-10T08:06:48;23.85;;;11.50;;
60344;SDS011;46188;52.324;8.032;2023-05-10T08:09:14;21.50;;;12.93;;
60344;SDS011;46188;52.324;8.032;2023-05-10T08:11:39;22.67;;;12.48;;
60344;SDS011;46188;52.324;8.032;2023-05-10T08:14:04;23.67;;;13.80;;
60344;SDS011;46188;52.324;8.032;2023-05-10T08:16:30;21.88;;;12.57;;
60344;SDS011;46188;52.324;8.032;2023-05-10T08:18:55;27.13;;;13.57;;
60344;SDS011;46188;52.324;8.032;2023-05-10T08:21:20;24.02;;;13.93;;
60344;SDS011;46188;52.324;8.032;2023-05-10T08:23:46;27.67;;;14.00;;
60344;SDS011;46188;52.324;8.032;2023-05-10T08:26:11;24.50;;;13.02;;
60344;SDS011;46188;52.324;8.032;2023-05-10T08:28:36;25.13;;;14.07;;
60344;SDS011;46188;52.324;8.032;2023-05-10T08:31:02;27.10;;;14.27;;
60344;SDS011;46188;52.324;8.032;2023-05-10T08:33:27;23.88;;;13.45;;
60344;SDS011;46188;52.324;8.032;2023-05-10T08:35:52;24.80;;;14.20;;
60344;SDS011;46188;52.324;8.032;2023-05-10T08:38:17;21.73;;;14.20;;
60344;SDS011;46188;52.324;8.032;2023-05-10T08:40:43;21.27;;;12.48;;
60344;SDS011;46188;52.324;8.032;2023-05-10T08:43:10;26.80;;;14.40;;
60344;SDS011;46188;52.324;8.032;2023-05-10T08:45:37;28.90;;;13.85;;
60344;SDS011;46188;52.324;8.032;2023-05-10T08:48:05;28.60;;;13.98;;
60344;SDS011;46188;52.324;8.032;2023-05-10T08:50:32;26.08;;;14.65;;
60344;SDS011;46188;52.324;8.032;2023-05-10T08:53:00;23.70;;;12.70;;
60344;SDS011;46188;52.324;8.032;2023-05-10T08:55:29;25.92;;;14.20;;
60344;SDS011;46188;52.324;8.032;2023-05-10T08:57:57;23.23;;;13.32;;
60344;SDS011;46188;52.324;8.032;2023-05-10T09:00:23;23.13;;;13.25;;
60344;SDS011;46188;52.324;8.032;2023-05-10T09:02:49;26.35;;;12.50;;
60344;SDS011;46188;52.324;8.032;2023-05-10T09:05:15;22.80;;;12.80;;
60344;SDS011;46188;52.324;8.032;2023-05-10T09:07:41;20.50;;;12.85;;
60344;SDS011;46188;52.324;8.032;2023-05-10T09:10:07;21.52;;;13.60;;
60344;SDS011;46188;52.324;8.032;2023-05-10T09:12:33;23.02;;;13.25;;
60344;SDS011;46188;52.324;8.032;2023-05-10T09:14:59;23.70;;;11.95;;
60344;SDS011;46188;52.324;8.032;2023-05-10T09:17:25;24.35;;;14.93;;
60344;SDS011;46188;52.324;8.032;2023-05-10T09:19:56;23.70;;;13.25;;
60344;SDS011;46188;52.324;8.032;2023-05-10T09:22:23;23.13;;;13.85;;
60344;SDS011;46188;52.324;8.032;2023-05-10T09:25:03;23.23;;;11.95;;
60344;SDS011;46188;52.324;8.032;2023-05-10T09:27:28;23.65;;;12.38;;
60344;SDS011;46188;52.324;8.032;2023-05-10T09:29:54;22.55;;;13.00;;
60344;SDS011;46188;52.324;8.032;2023-05-10T09:32:20;20.60;;;11.95;;
60344;SDS011;46188;52.324;8.032;2023-05-10T09:34:45;21.30;;;12.35;;
60344;SDS011;46188;52.324;8.032;2023-05-10T09:37:10;23.45;;;11.82;;
60344;SDS011;46188;52.324;8.032;2023-05-10T09:39:36;21.23;;;11.95;;
60344;SDS011;46188;52.324;8.032;2023-05-10T09:42:08;21.25;;;12.25;;
60344;SDS011;46188;52.324;8.032;2023-05-10T09:44:34;24.67;;;13.32;;
60344;SDS011;46188;52.324;8.032;2023-05-10T09:47:02;23.48;;;14.10;;
60344;SDS011;46188;52.324;8.032;2023-05-10T09:49:28;22.48;;;12.75;;
60344;SDS011;46188;52.324;8.032;2023-05-10T09:51:59;23.40;;;13.48;;
60344;SDS011;46188;52.324;8.032;2023-05-10T09:54:26;25.70;;;13.77;;
60344;SDS011;46188;52.324;8.032;2023-05-10T09:56:51;22.67;;;13.43;;
60344;SDS011;46188;52.324;8.032;2023-05-10T09:59:16;22.85;;;14.75;;
60344;SDS011;46188;52.324;8.032;2023-05-10T10:01:41;21.95;;;12.90;;
60344;SDS011;46188;52.324;8.032;2023-05-10T10:04:13;21.40;;;11.73;;
60344;SDS011;46188;52.324;8.032;2023-05-10T10:06:39;19.95;;;13.63;;
60344;SDS011;46188;52.324;8.032;2023-05-10T10:09:08;19.20;;;12.07;;
60344;SDS011;46188;52.324;8.032;2023-05-10T10:11:35;19.88;;;12.18;;
60344;SDS011;46188;52.324;8.032;2023-05-10T10:14:00;32.65;;;14.35;;
60344;SDS011;46188;52.324;8.032;2023-05-10T10:16:27;21.73;;;12.27;;
60344;SDS011;46188;52.324;8.032;2023-05-10T10:18:54;19.65;;;11.43;;
60344;SDS011;46188;52.324;8.032;2023-05-10T10:21:20;20.58;;;12.65;;
60344;SDS011;46188;52.324;8.032;2023-05-10T10:23:46;19.48;;;12.10;;
60344;SDS011;46188;52.324;8.032;2023-05-10T10:26:11;21.63;;;12.85;;
60344;SDS011;46188;52.324;8.032;2023-05-10T10:31:57;20.52;;;12.20;;
60344;SDS011;46188;52.324;8.032;2023-05-10T10:34:38;23.33;;;12.27;;
60344;SDS011;46188;52.324;8.032;2023-05-10T10:37:04;17.90;;;11.68;;
60344;SDS011;46188;52.324;8.032;2023-05-10T10:39:31;24.15;;;12.32;;
60344;SDS011;46188;52.324;8.032;2023-05-10T10:41:57;21.08;;;12.65;;
60344;SDS011;46188;52.324;8.032;2023-05-10T10:46:59;21.20;;;11.70;;
60344;SDS011;46188;52.324;8.032;2023-05-10T10:49:25;16.70;;;10.70;;
60344;SDS011;46188;52.324;8.032;2023-05-10T10:54:40;21.17;;;11.45;;
60344;SDS011;46188;52.324;8.032;2023-05-10T10:57:10;18.95;;;11.73;;
60344;SDS011;46188;52.324;8.032;2023-05-10T10:59:39;19.70;;;11.50;;
60344;SDS011;46188;52.324;8.032;2023-05-10T11:02:06;20.17;;;10.13;;
60344;SDS011;46188;52.324;8.032;2023-05-10T11:04:41;18.15;;;10.55;;
60344;SDS011;46188;52.324;8.032;2023-05-10T11:07:17;19.08;;;10.00;;
60344;SDS011;46188;52.324;8.032;2023-05-10T11:09:44;17.63;;;9.65;;
60344;SDS011;46188;52.324;8.032;2023-05-10T11:12:12;14.20;;;9.05;;
60344;SDS011;46188;52.324;8.032;2023-05-10T11:14:37;16.33;;;9.48;;
60344;SDS011;46188;52.324;8.032;2023-05-10T11:17:08;14.73;;;10.18;;
60344;SDS011;46188;52.324;8.032;2023-05-10T11:20:07;17.20;;;10.40;;
60344;SDS011;46188;52.324;8.032;2023-05-10T11:22:48;16.17;;;9.93;;
60344;SDS011;46188;52.324;8.032;2023-05-10T11:25:15;16.65;;;10.63;;
60344;SDS011;46188;52.324;8.032;2023-05-10T11:27:41;17.92;;;10.77;;
60344;SDS011;46188;52.324;8.032;2023-05-10T11:30:06;19.75;;;11.07;;
60344;SDS011;46188;52.324;8.032;2023-05-10T11:32:36;19.63;;;11.80;;
60344;SDS011;46188;52.324;8.032;2023-05-10T11:35:10;23.05;;;11.63;;
60344;SDS011;46188;52.324;8.032;2023-05-10T11:37:37;20.80;;;11.32;;
60344;SDS011;46188;52.324;8.032;2023-05-10T11:40:07;21.88;;;11.90;;
60344;SDS011;46188;52.324;8.032;2023-05-10T11:42:34;19.73;;;12.32;;
60344;SDS011;46188;52.324;8.032;2023-05-10T11:45:02;20.80;;;13.90;;
60344;SDS011;46188;52.324;8.032;2023-05-10T11:47:27;22.95;;;13.75;;
60344;SDS011;46188;52.324;8.032;2023-05-10T11:49:52;21.25;;;12.40;;
60344;SDS011;46188;52.324;8.032;2023-05-10T11:52:18;20.30;;;12.77;;
60344;SDS011;46188;52.324;8.032;2023-05-10T11:54:54;19.45;;;12.40;;
60344;SDS011;46188;52.324;8.032;2023-05-10T11:57:19;18.77;;;12.52;;
60344;SDS011;46188;52.324;8.032;2023-05-10T11:59:46;19.73;;;11.32;;
60344;SDS011;46188;52.324;8.032;2023-05-10T12:02:13;17.83;;;10.23;;
60344;SDS011;46188;52.324;8.032;2023-05-10T12:04:38;16.17;;;9.65;;
60344;SDS011;46188;52.324;8.032;2023-05-10T12:07:04;15.07;;;8.55;;
60344;SDS011;46188;52.324;8.032;2023-05-10T12:09:29;14.10;;;8.93;;
60344;SDS011;46188;52.324;8.032;2023-05-10T12:11:55;13.88;;;8.93;;
60344;SDS011;46188;52.324;8.032;2023-05-10T12:14:21;15.27;;;9.30;;
60344;SDS011;46188;52.324;8.032;2023-05-10T12:16:47;14.80;;;9.35;;
60344;SDS011;46188;52.324;8.032;2023-05-10T12:19:12;15.40;;;9.88;;
60344;SDS011;46188;52.324;8.032;2023-05-10T12:21:45;17.38;;;10.30;;
60344;SDS011;46188;52.324;8.032;2023-05-10T12:24:10;15.82;;;10.07;;
60344;SDS011;46188;52.324;8.032;2023-05-10T12:26:36;15.10;;;9.45;;
60344;SDS011;46188;52.324;8.032;2023-05-10T12:29:17;16.02;;;9.88;;
60344;SDS011;46188;52.324;8.032;2023-05-10T12:31:53;17.80;;;9.45;;
60344;SDS011;46188;52.324;8.032;2023-05-10T12:34:33;15.00;;;9.15;;
60344;SDS011;46188;52.324;8.032;2023-05-10T12:37:00;13.80;;;9.13;;
60344;SDS011;46188;52.324;8.032;2023-05-10T12:39:25;18.17;;;9.70;;
60344;SDS011;46188;52.324;8.032;2023-05-10T12:41:51;13.57;;;8.65;;
60344;SDS011;46188;52.324;8.032;2023-05-10T12:44:17;15.40;;;8.77;;
60344;SDS011;46188;52.324;8.032;2023-05-10T12:46:43;14.25;;;8.57;;
60344;SDS011;46188;52.324;8.032;2023-05-10T12:49:08;12.32;;;7.90;;
60344;SDS011;46188;52.324;8.032;2023-05-10T12:51:33;13.43;;;8.27;;
60344;SDS011;46188;52.324;8.032;2023-05-10T12:53:59;12.85;;;8.40;;
60344;SDS011;46188;52.324;8.032;2023-05-10T12:56:24;13.98;;;8.23;;
60344;SDS011;46188;52.324;8.032;2023-05-10T12:58:49;13.40;;;8.95;;
60344;SDS011;46188;52.324;8.032;2023-05-10T13:01:15;12.88;;;8.43;;
60344;SDS011;46188;52.324;8.032;2023-05-10T13:03:41;12.20;;;7.85;;
60344;SDS011;46188;52.324;8.032;2023-05-10T13:06:07;14.80;;;8.68;;
60344;SDS011;46188;52.324;8.032;2023-05-10T13:08:33;13.15;;;9.48;;
60344;SDS011;46188;52.324;8.032;2023-05-10T13:10:59;15.02;;;9.07;;
60344;SDS011;46188;52.324;8.032;2023-05-10T13:13:25;16.70;;;10.02;;
60344;SDS011;46188;52.324;8.032;2023-05-10T13:15:51;14.23;;;9.77;;
60344;SDS011;46188;52.324;8.032;2023-05-10T13:18:16;17.25;;;10.00;;
60344;SDS011;46188;52.324;8.032;2023-05-10T13:20:41;15.07;;;8.70;;
60344;SDS011;46188;52.324;8.032;2023-05-10T13:23:09;13.65;;;9.50;;
60344;SDS011;46188;52.324;8.032;2023-05-10T13:25:34;13.23;;;8.60;;
60344;SDS011;46188;52.324;8.032;2023-05-10T13:27:59;14.27;;;9.03;;
60344;SDS011;46188;52.324;8.032;2023-05-10T13:30:25;13.95;;;9.65;;
60344;SDS011;46188;52.324;8.032;2023-05-10T13:32:50;13.83;;;8.97;;
60344;SDS011;46188;52.324;8.032;2023-05-10T13:35:15;14.50;;;9.10;;
60344;SDS011;46188;52.324;8.032;2023-05-10T13:37:41;16.42;;;10.05;;
60344;SDS011;46188;52.324;8.032;2023-05-10T13:40:06;13.45;;;8.75;;
60344;SDS011;46188;52.324;8.032;2023-05-10T13:42:32;13.63;;;9.20;;
60344;SDS011;46188;52.324;8.032;2023-05-10T13:44:58;16.13;;;9.90;;
60344;SDS011;46188;52.324;8.032;2023-05-10T13:47:24;14.00;;;8.75;;
60344;SDS011;46188;52.324;8.032;2023-05-10T13:49:49;16.35;;;8.80;;
60344;SDS011;46188;52.324;8.032;2023-05-10T13:52:14;11.93;;;8.27;;
60344;SDS011;46188;52.324;8.032;2023-05-10T13:54:40;14.82;;;8.40;;
60344;SDS011;46188;52.324;8.032;2023-05-10T13:57:05;11.57;;;7.55;;
60344;SDS011;46188;52.324;8.032;2023-05-10T13:59:31;12.07;;;7.82;;
60344;SDS011;46188;52.324;8.032;2023-05-10T14:01:57;13.18;;;7.47;;
60344;SDS011;46188;52.324;8.032;2023-05-10T14:04:23;10.57;;;6.95;;
60344;SDS011;46188;52.324;8.032;2023-05-10T14:06:48;10.75;;;7.20;;
60344;SDS011;46188;52.324;8.032;2023-05-10T14:09:13;8.77;;;6.53;;
60344;SDS011;46188;52.324;8.032;2023-05-10T14:11:39;10.82;;;7.18;;
60344;SDS011;46188;52.324;8.032;2023-05-10T14:14:07;10.77;;;6.68;;
60344;SDS011;46188;52.324;8.032;2023-05-10T14:16:33;10.57;;;6.18;;
60344;SDS011;46188;52.324;8.032;2023-05-10T14:18:58;8.32;;;5.50;;
60344;SDS011;46188;52.324;8.032;2023-05-10T14:21:24;10.70;;;6.78;;
60344;SDS011;46188;52.324;8.032;2023-05-10T14:23:49;8.35;;;6.63;;
60344;SDS011;46188;52.324;8.032;2023-05-10T14:26:14;11.23;;;6.73;;
60344;SDS011;46188;52.324;8.032;2023-05-10T14:28:39;9.17;;;6.47;;
60344;SDS011;46188;52.324;8.032;2023-05-10T14:31:04;8.70;;;6.15;;
60344;SDS011;46188;52.324;8.032;2023-05-10T14:33:30;9.13;;;6.65;;
60344;SDS011;46188;52.324;8.032;2023-05-10T14:35:55;10.17;;;5.77;;
60344;SDS011;46188;52.324;8.032;2023-05-10T14:38:21;10.02;;;5.82;;
60344;SDS011;46188;52.324;8.032;2023-05-10T14:40:47;10.10;;;5.70;;
60344;SDS011;46188;52.324;8.032;2023-05-10T14:43:12;8.43;;;5.40;;
60344;SDS011;46188;52.324;8.032;2023-05-10T14:45:37;9.55;;;5.45;;
60344;SDS011;46188;52.324;8.032;2023-05-10T14:48:02;9.23;;;5.17;;
60344;SDS011;46188;52.324;8.032;2023-05-10T14:50:29;7.47;;;5.20;;
60344;SDS011;46188;52.324;8.032;2023-05-10T14:52:55;8.23;;;5.28;;
60344;SDS011;46188;52.324;8.032;2023-05-10T14:55:20;8.90;;;5.20;;
60344;SDS011;46188;52.324;8.032;2023-05-10T14:57:45;7.15;;;4.60;;
60344;SDS011;46188;52.324;8.032;2023-05-10T15:00:12;6.95;;;4.93;;
60344;SDS011;46188;52.324;8.032;2023-05-10T15:02:40;6.75;;;4.22;;